createdAt,value
2018-09-05T00:01:25.870Z,97.30
2018-09-05T00:06:20.233Z,97.80
2018-09-05T00:11:14.884Z,97.50
2018-09-05T00:16:09.322Z,97.90
2018-09-05T00:21:04.898Z,97.90
2018-09-05T00:25:59.706Z,97.80
2018-09-05T00:30:54.423Z,98.20
2018-09-05T00:35:48.962Z,98.20
2018-09-05T00:40:44.262Z,98.50
2018-09-05T00:45:39.875Z,98.50
2018-09-05T00:50:35.549Z,98.90
2018-09-05T00:55:30.126Z,98.70
2018-09-05T01:00:25.185Z,99.00
2018-09-05T01:05:19.680Z,99.10
2018-09-05T01:10:14.435Z,99.10
2018-09-05T01:15:09.017Z,99.30
2018-09-05T01:20:04.788Z,99.40
2018-09-05T01:25:32.478Z,99.60
2018-09-05T01:30:28.499Z,99.60
2018-09-05T01:35:23.080Z,99.50
2018-09-05T01:40:17.780Z,99.40
2018-09-05T01:45:12.937Z,99.10
2018-09-05T01:50:07.332Z,99.00
2018-09-05T01:55:09.525Z,99.00
2018-09-05T02:00:05.208Z,99.10
2018-09-05T02:04:59.481Z,99.30
2018-09-05T02:09:53.869Z,99.70
2018-09-05T02:14:49.156Z,99.90
2018-09-05T02:19:52.089Z,99.90
2018-09-05T02:24:54.003Z,99.90
2018-09-05T02:29:48.878Z,99.90
2018-09-05T02:35:08.009Z,99.90
2018-09-05T02:40:04.097Z,99.90
2018-09-05T02:44:58.447Z,99.90
2018-09-05T02:49:52.911Z,99.90
2018-09-05T02:54:47.452Z,99.90
2018-09-05T02:59:49.416Z,99.90
2018-09-05T03:04:51.286Z,99.90
2018-09-05T03:09:52.987Z,99.90
2018-09-05T03:14:55.177Z,99.90
2018-09-05T03:19:57.290Z,99.90
2018-09-05T03:24:52.037Z,99.90
2018-09-05T03:29:46.512Z,99.90
2018-09-05T03:34:42.768Z,99.90
2018-09-05T03:39:37.077Z,99.90
2018-09-05T03:44:32.801Z,99.90
2018-09-05T03:49:27.612Z,99.90
2018-09-05T03:54:30.100Z,99.90
2018-09-05T03:59:32.221Z,99.90
2018-09-05T04:04:37.579Z,99.90
2018-09-05T04:09:39.142Z,99.90
2018-09-05T04:14:41.251Z,99.90
2018-09-05T04:19:39.231Z,99.90
2018-09-05T04:24:33.658Z,99.90
2018-09-05T04:29:28.165Z,99.90
2018-09-05T04:34:23.031Z,99.90
2018-09-05T04:39:17.862Z,99.90
2018-09-05T04:44:12.313Z,99.90
2018-09-05T04:49:22.443Z,99.90
2018-09-05T04:54:17.580Z,99.90
2018-09-05T04:59:12.826Z,99.90
2018-09-05T05:04:07.379Z,99.90
2018-09-05T05:09:03.106Z,99.90
2018-09-05T05:13:57.842Z,99.90
2018-09-05T05:18:53.028Z,99.90
2018-09-05T05:23:48.518Z,99.90
2018-09-05T05:28:43.891Z,99.90
2018-09-05T05:33:39.292Z,99.90
2018-09-05T05:38:35.321Z,99.90
2018-09-05T05:43:30.526Z,99.90
2018-09-05T05:48:25.191Z,99.90
2018-09-05T05:53:19.889Z,99.90
2018-09-05T05:58:14.804Z,99.90
2018-09-05T06:03:09.723Z,99.90
2018-09-05T06:08:06.021Z,99.90
2018-09-05T06:13:00.273Z,99.50
2018-09-05T06:17:55.420Z,98.70
2018-09-05T06:22:50.832Z,98.30
2018-09-05T06:27:46.047Z,97.10
2018-09-05T06:32:42.548Z,95.90
2018-09-05T06:37:46.542Z,95.50
2018-09-05T06:42:49.073Z,94.80
2018-09-05T06:47:45.759Z,94.40
2018-09-05T06:52:40.304Z,93.60
2018-09-05T06:57:36.571Z,92.10
2018-09-05T07:02:34.350Z,91.90
2018-09-05T07:07:29.265Z,91.00
2018-09-05T07:12:24.165Z,92.20
2018-09-05T07:17:20.179Z,90.00
2018-09-05T07:22:14.733Z,85.30
2018-09-05T07:27:25.204Z,77.60
2018-09-05T07:32:28.327Z,74.00
2018-09-05T07:37:23.088Z,77.20
2018-09-05T07:42:17.479Z,79.80
2018-09-05T07:47:12.211Z,74.10
2018-09-05T07:52:07.589Z,72.30
2018-09-05T07:57:13.755Z,68.20
2018-09-05T08:02:15.853Z,60.30
2018-09-05T08:07:34.427Z,55.40
2018-09-05T08:12:52.950Z,54.60
2018-09-05T08:18:03.304Z,53.30
2018-09-05T08:23:15.572Z,52.60
2018-09-05T08:28:25.908Z,52.10
2018-09-05T08:33:43.925Z,52.10
2018-09-05T08:38:39.327Z,49.50
2018-09-05T08:43:34.997Z,44.60
2018-09-05T08:48:30.043Z,45.60
2018-09-05T08:53:24.576Z,41.30
2018-09-05T08:58:19.209Z,41.60
2018-09-05T09:03:15.353Z,39.70
2018-09-05T09:08:10.370Z,38.90
2018-09-05T09:13:05.793Z,40.80
2018-09-05T09:18:00.927Z,42.80
2018-09-05T09:22:55.362Z,39.50
2018-09-05T09:27:50.611Z,36.00
2018-09-05T09:32:46.248Z,33.20
2018-09-05T09:37:43.518Z,33.30
2018-09-05T09:42:38.628Z,31.90
2018-09-05T09:47:34.081Z,31.30
2018-09-05T09:52:29.161Z,28.80
2018-09-05T09:57:24.760Z,28.10
2018-09-05T10:02:24.553Z,29.20
2018-09-05T10:07:24.553Z,31.10
2018-09-05T10:12:24.131Z,28.10
2018-09-05T10:17:25.420Z,26.60
2018-09-05T10:22:21.486Z,27.70
2018-09-05T10:27:16.349Z,28.90
2018-09-05T10:32:11.063Z,25.40
2018-09-05T10:37:20.551Z,27.10
2018-09-05T10:42:22.357Z,25.80
2018-09-05T10:47:18.168Z,26.10
2018-09-05T10:52:12.537Z,27.10
2018-09-05T10:57:08.417Z,26.40
2018-09-05T11:02:05.626Z,25.00
2018-09-05T11:07:08.876Z,23.30
2018-09-05T11:12:05.216Z,24.90
2018-09-05T11:17:00.006Z,29.00
2018-09-05T11:21:54.541Z,28.60
2018-09-05T11:26:49.535Z,30.30
2018-09-05T11:31:45.050Z,34.00
2018-09-05T11:36:39.651Z,37.00
2018-09-05T11:41:34.650Z,38.90
2018-09-05T11:46:29.136Z,39.00
2018-09-05T11:51:23.676Z,39.60
2018-09-05T11:56:19.321Z,38.80
2018-09-05T12:01:14.177Z,40.60
2018-09-05T12:06:09.948Z,41.00
2018-09-05T12:11:08.230Z,39.30
2018-09-05T12:16:06.749Z,40.20
2018-09-05T12:21:04.415Z,41.40
2018-09-05T12:25:59.037Z,40.70
2018-09-05T12:31:15.813Z,40.60
2018-09-05T12:36:34.080Z,41.20
2018-09-05T12:41:52.216Z,40.60
2018-09-05T12:46:47.775Z,42.50
2018-09-05T12:51:42.505Z,42.60
2018-09-05T12:56:38.883Z,41.80
2018-09-05T13:01:33.620Z,41.90
2018-09-05T13:06:36.041Z,42.80
2018-09-05T13:11:40.285Z,42.50
2018-09-05T13:16:42.029Z,42.80
2018-09-05T13:21:36.459Z,41.00
2018-09-05T13:26:31.080Z,41.70
2018-09-05T13:31:26.353Z,41.80
2018-09-05T13:36:21.058Z,42.20
2018-09-05T13:41:22.969Z,42.00
2018-09-05T13:46:25.527Z,42.80
2018-09-05T13:51:21.675Z,42.60
2018-09-05T13:56:16.410Z,42.20
2018-09-05T14:01:12.306Z,42.10
2018-09-05T14:06:08.580Z,41.90
2018-09-05T14:11:11.857Z,41.90
2018-09-05T14:16:14.495Z,41.40
2018-09-05T14:21:10.162Z,41.10
2018-09-05T14:26:06.061Z,41.60
2018-09-05T14:31:01.874Z,41.40
2018-09-05T14:35:56.550Z,41.30
2018-09-05T14:40:51.587Z,41.70
2018-09-05T14:45:47.163Z,41.30
2018-09-05T14:50:42.409Z,42.00
2018-09-05T14:55:37.319Z,41.50
2018-09-05T15:00:39.508Z,41.10
2018-09-05T15:05:36.440Z,41.50
2018-09-05T15:10:31.209Z,41.30
2018-09-05T15:15:26.455Z,41.40
2018-09-05T15:20:21.035Z,41.70
2018-09-05T15:25:23.310Z,42.80
2018-09-05T15:30:18.602Z,42.80
2018-09-05T15:35:13.230Z,43.60
2018-09-05T15:40:11.122Z,43.60
2018-09-05T15:45:06.691Z,44.00
2018-09-05T15:50:03.095Z,45.30
2018-09-05T15:54:58.596Z,44.30
2018-09-05T15:59:54.582Z,44.30
2018-09-05T16:04:49.889Z,44.80
2018-09-05T16:09:44.563Z,44.60
2018-09-05T16:14:39.880Z,45.70
2018-09-05T16:19:34.604Z,45.90
2018-09-05T16:24:29.172Z,46.00
2018-09-05T16:29:32.200Z,46.90
2018-09-05T16:34:27.505Z,48.10
2018-09-05T16:39:22.625Z,48.40
2018-09-05T16:44:18.745Z,49.70
2018-09-05T16:49:13.411Z,50.40
2018-09-05T16:54:16.410Z,49.90
2018-09-05T16:59:11.549Z,50.50
2018-09-05T17:04:08.378Z,51.80
2018-09-05T17:09:04.041Z,51.70
2018-09-05T17:13:58.656Z,52.10
2018-09-05T17:19:01.427Z,52.80
2018-09-05T17:23:56.012Z,52.80
2018-09-05T17:28:51.323Z,54.00
2018-09-05T17:33:45.753Z,54.60
2018-09-05T17:38:40.344Z,55.30
2018-09-05T17:43:35.668Z,57.00
2018-09-05T17:48:29.964Z,56.40
2018-09-05T17:53:24.633Z,57.20
2018-09-05T17:58:19.008Z,58.30
2018-09-05T18:03:14.283Z,59.40
2018-09-05T18:08:09.480Z,60.10
2018-09-05T18:13:06.273Z,61.80
2018-09-05T18:18:00.840Z,63.00
2018-09-05T18:22:56.967Z,63.20
2018-09-05T18:27:51.427Z,64.90
2018-09-05T18:32:46.048Z,65.60
2018-09-05T18:37:40.778Z,66.30
2018-09-05T18:42:35.808Z,67.20
2018-09-05T18:47:30.817Z,67.40
2018-09-05T18:52:25.892Z,68.30
2018-09-05T18:57:20.559Z,68.50
2018-09-05T19:02:16.173Z,69.20
2018-09-05T19:07:10.869Z,69.10
2018-09-05T19:12:08.797Z,69.70
2018-09-05T19:17:05.288Z,70.00
2018-09-05T19:22:00.142Z,71.50
2018-09-05T19:26:55.113Z,75.00
2018-09-05T19:31:50.469Z,77.10
2018-09-05T19:36:45.148Z,78.90
2018-09-05T19:41:39.652Z,80.20
2018-09-05T19:46:34.612Z,81.20
2018-09-05T19:51:29.603Z,82.80
2018-09-05T19:56:25.184Z,82.90
2018-09-05T20:01:20.102Z,82.40
2018-09-05T20:06:14.946Z,83.10
2018-09-05T20:11:12.042Z,83.40
2018-09-05T20:16:07.777Z,83.30
2018-09-05T20:21:04.021Z,83.00
2018-09-05T20:25:58.888Z,83.20
2018-09-05T20:30:55.324Z,85.00
2018-09-05T20:35:50.317Z,84.60
2018-09-05T20:40:45.897Z,85.80
2018-09-05T20:45:40.516Z,86.70
2018-09-05T20:50:35.969Z,87.50
2018-09-05T20:55:31.877Z,88.50
2018-09-05T21:00:26.922Z,88.30
2018-09-05T21:05:21.469Z,89.20
2018-09-05T21:10:16.041Z,89.80
2018-09-05T21:15:10.897Z,90.30
2018-09-05T21:20:06.871Z,90.60
2018-09-05T21:25:02.901Z,90.70
2018-09-05T21:29:57.894Z,91.10
2018-09-05T21:34:52.361Z,91.60
2018-09-05T21:39:54.484Z,91.80
2018-09-05T21:44:49.450Z,92.10
2018-09-05T21:49:44.119Z,92.30
2018-09-05T21:54:39.128Z,92.50
2018-09-05T21:59:33.854Z,92.70
2018-09-05T22:04:29.618Z,93.00
2018-09-05T22:09:24.645Z,93.10
2018-09-05T22:14:19.802Z,93.00
2018-09-05T22:19:15.489Z,93.40
2018-09-05T22:24:15.312Z,93.50
2018-09-05T22:29:09.864Z,94.00
2018-09-05T22:34:05.397Z,94.20
2018-09-05T22:38:59.979Z,94.50
2018-09-05T22:44:13.254Z,94.40
2018-09-05T22:50:03.511Z,94.70
2018-09-05T22:55:26.716Z,94.80
2018-09-05T23:00:32.289Z,94.90
2018-09-05T23:05:55.295Z,95.00
2018-09-05T23:11:01.106Z,95.20
2018-09-05T23:16:07.169Z,95.40
2018-09-05T23:21:17.395Z,95.70
2018-09-05T23:26:12.264Z,95.80
2018-09-05T23:31:07.469Z,96.00
2018-09-05T23:36:03.030Z,95.90
2018-09-05T23:40:58.222Z,96.30
2018-09-05T23:45:52.790Z,96.40
2018-09-05T23:50:48.629Z,96.60
2018-09-05T23:55:43.409Z,96.70
